EGCCEDDF

Guest
Details From EGCC - Manchester
To EDDF - Frankfurt Am Main
Flight Number -
Tags Generated
Created
Modified
Stats Distance 449 nm / 832 km
Max Altitude 0 ft / 0 m
Waypoints 4
Social Downloads 0
Likes 0
Share VATSIM

Download

Looking for another format? Having issues loading an existing format? Contact us
Advertisement - Login to hide

Notes

Generated

Route

EGCC GORLO R1285 EDDF

ID Type Via Altitude Latitude Longitude Leg Dist Tot Dist Heading (true) Name
O EGCC APT - 0 ft / 0 m 53.33197˚ -2.31066˚ - 0 nm - -
GORLO FIX - 0 ft / 0 m 51.92417˚ 3.17194˚ 216 nm 216 nm 111° / 115° -
R1285 FIX - 0 ft / 0 m 50.02754˚ 8.53417˚ 232 nm 449 nm 117° / 121° -
O EDDF APT - 0 ft / 0 m 50.02754˚ 8.53417˚ 0 nm 449 nm 0° / 180° -

Altitude Profile

Advertisement - Login to hide

Weather


0- 5 10 15 20 25 30 35+ Temperature / ° C

Clouds and Precipitation
Forecast for 2018-05-26 06:00 UTC. Updated 3 hours ago

Ground ~20,000 ft ~40,000 ft Winds

EGCC

Details ICAO EGCC (MAN)
Name Manchester Intl
Region United Kingdom
Timezone Europe/London (UTC+1.0)
Stats Elevation 257 ft / 78 m (AMSL)
Location 53.347141° -2.283954°
Runways 2
Magnetic Variation 1.391° W

METAR

EGCC 260820Z AUTO 04012KT 9999 NCD 16/11 Q1023

Decode

TAF

TAF EGCC 260501Z 2606/2712 05009KT 9999 SCT015 TEMPO 2606/2608 8000 BKN010 PROB30 TEMPO 2608/2613 7000 SHRA BKN010 PROB40 TEMPO 2703/2712 6000 SHRA

Decode

Departure Runways

ID Width Length Bearing (true) Bearing (mag) Surface Threshold Offset Overrun Length
05L 151 ft / 46 m 9,981 ft / 3,042 m 50.99° 52.38° Asphalt 1,401 ft / 427 m 0 ft / 0 m
05R 151 ft / 46 m 9,952 ft / 3,033 m 50.97° 52.36° Asphalt 0 ft / 0 m 26 ft / 8 m
23L 151 ft / 46 m 9,952 ft / 3,033 m 231.00° 232.39° Asphalt 561 ft / 171 m 0 ft / 0 m
23R 151 ft / 46 m 9,981 ft / 3,042 m 231.02° 232.41° Asphalt 597 ft / 182 m 0 ft / 0 m

EDDF

Details ICAO EDDF (FRA)
Name Frankfurt am Main
Region Germany - Civil
Timezone Europe/Berlin (UTC+2.0)
Stats Elevation 355 ft / 108 m (AMSL)
Location 50.032604° 8.540641°
Runways 4
Magnetic Variation 2.400° E

METAR

EDDF 260820Z 06007KT 030V090 CAVOK 23/15 Q1020 NOSIG

Decode

TAF

TAF EDDF 260500Z 2606/2712 05007KT 9999 FEW025= TAF EDDL 260500Z 2606/2712 VRB03KT CAVOK BECMG 2607/2609 07008KT BECMG 2617/2620 VRB03KT

Decode

Destination Runways

ID Width Length Bearing (true) Bearing (mag) Surface Threshold Offset Overrun Length
07C 197 ft / 60 m 13,091 ft / 3,990 m 69.57° 67.17° Asphalt 0 ft / 0 m 230 ft / 70 m
07L 148 ft / 45 m 9,164 ft / 2,793 m 69.54° 67.14° Concrete 0 ft / 0 m 328 ft / 100 m
07R 148 ft / 45 m 13,094 ft / 3,991 m 69.57° 67.17° Asphalt 0 ft / 0 m 230 ft / 70 m
18 148 ft / 45 m 13,056 ft / 3,980 m 179.84° 177.44° Concrete 0 ft / 0 m 49 ft / 15 m
25C 197 ft / 60 m 13,091 ft / 3,990 m 249.61° 247.21° Asphalt 0 ft / 0 m 1,152 ft / 351 m
25L 148 ft / 45 m 13,094 ft / 3,991 m 249.61° 247.21° Asphalt 0 ft / 0 m 2,051 ft / 625 m
25R 148 ft / 45 m 9,164 ft / 2,793 m 249.57° 247.17° Concrete 0 ft / 0 m 328 ft / 100 m
36 148 ft / 45 m 13,056 ft / 3,980 m 359.84° 357.44° Concrete 0 ft / 0 m 190 ft / 58 m

Approach Navaids

Runway Type Ident Frequency Range Bearing (true) Bearing (mag) Slope Elevation
07C Localiser IFCE 110.55 MHz 18 nm / 33 km 69.61° 67.21° - 364 ft / 111 m (AMSL)
07C Glidescope IFCE 110.55 MHz 15 nm / 28 km 69.59° 67.19° 3.00° 355 ft / 108 m (AMSL)
07L Localiser IFNE 111.75 MHz 18 nm / 33 km 69.59° 67.19° - 357 ft / 109 m (AMSL)
07L Glidescope IFNE 111.75 MHz 10 nm / 19 km 69.59° 67.19° 3.00° 357 ft / 109 m (AMSL)
07L DME IFNE 111.75 MHz 18 nm / 33 km - - - 357 ft / 109 m (AMSL)
07R Localiser IFSE 110.95 MHz 18 nm / 33 km 69.62° 67.22° - 362 ft / 110 m (AMSL)
07R Glidescope IFSE 110.95 MHz 15 nm / 28 km 69.59° 67.19° 3.00° 328 ft / 100 m (AMSL)
25C Localiser IFCW 111.55 MHz 25 nm / 46 km 249.57° 247.17° - 329 ft / 100 m (AMSL)
25C Glidescope IFCW 111.55 MHz 18 nm / 33 km 249.57° 247.17° 3.00° 364 ft / 111 m (AMSL)
25C DME IFCW 111.55 MHz 18 nm / 33 km - - - 364 ft / 111 m (AMSL)
25L Localiser IFSW 111.15 MHz 18 nm / 33 km 249.57° 247.17° - 328 ft / 100 m (AMSL)
25L Glidescope IFSW 111.15 MHz 10 nm / 19 km 249.59° 247.19° 3.00° 362 ft / 110 m (AMSL)
25R Localiser IFNW 111.35 MHz 18 nm / 33 km 249.59° 247.19° - 357 ft / 109 m (AMSL)
25R Glidescope IFNW 111.35 MHz 10 nm / 19 km 249.59° 247.19° 3.00° 357 ft / 109 m (AMSL)
25R DME IFNW 111.35 MHz 18 nm / 33 km - - - 357 ft / 109 m (AMSL)

Popular Alternatives